Time,TemperatureF,DewpointF,PressureIn,WindDirection,WindDirectionDegrees,WindSpeedMPH,WindSpeedGustMPH,Humidity,HourlyPrecipIn,Conditions,Clouds,dailyrainin,SoftwareType,DateUTC
2013-03-02 00:00:00,46.8,31.0,30.29,North,8,6.0,11.0,55,0.00,,,0.00,weatherlink.com 1.10,2013-03-02 06:00:00,
2013-03-02 00:15:00,47.0,31.0,30.29,North,6,6.0,11.0,54,0.00,,,0.00,weatherlink.com 1.10,2013-03-02 06:15:00,
2013-03-02 00:30:00,46.9,32.0,30.30,North,3,11.0,13.0,56,0.00,,,0.00,weatherlink.com 1.10,2013-03-02 06:30:00,
2013-03-02 00:45:00,46.7,31.0,30.30,North,4,6.0,12.0,55,0.00,,,0.00,weatherlink.com 1.10,2013-03-02 06:45:00,
2013-03-02 01:00:00,46.3,31.0,30.31,North,360,6.0,10.0,56,0.00,,,0.00,weatherlink.com 1.10,2013-03-02 07:00:00,
2013-03-02 01:15:00,45.8,32.0,30.31,North,4,5.0,9.0,58,0.00,,,0.00,weatherlink.com 1.10,2013-03-02 07:15:00,
2013-03-02 01:30:00,45.6,32.0,30.31,North,4,6.0,8.0,60,0.00,,,0.00,weatherlink.com 1.10,2013-03-02 07:30:00,
2013-03-02 01:45:00,45.9,33.0,30.31,North,2,5.0,7.0,60,0.00,,,0.00,weatherlink.com 1.10,2013-03-02 07:45:00,
2013-03-02 02:00:00,45.9,32.0,30.32,North,350,5.0,9.0,59,0.00,,,0.00,weatherlink.com 1.10,2013-03-02 08:00:00,
2013-03-02 02:15:00,45.7,32.0,30.32,North,350,5.0,8.0,60,0.00,,,0.00,weatherlink.com 1.10,2013-03-02 08:15:00,
2013-03-02 02:30:00,44.8,32.0,30.32,North,350,2.0,4.0,61,0.00,,,0.00,weatherlink.com 1.10,2013-03-02 08:30:00,
2013-03-02 02:45:00,43.8,31.0,30.32,North,350,0.0,2.0,62,0.00,,,0.00,weatherlink.com 1.10,2013-03-02 08:45:00,
2013-03-02 03:00:00,42.2,31.0,30.32,North,350,2.0,3.0,64,0.00,,,0.00,weatherlink.com 1.10,2013-03-02 09:00:00,
2013-03-02 03:15:00,41.8,32.0,30.32,North,350,0.0,2.0,69,0.00,,,0.00,weatherlink.com 1.10,2013-03-02 09:15:00,
2013-03-02 03:29:00,41.1,32.0,30.33,North,350,3.0,4.0,71,0.00,,,0.00,weatherlink.com 1.10,2013-03-02 09:29:00,
2013-03-02 03:45:00,40.3,29.0,30.33,North,350,2.0,5.0,65,0.00,,,0.00,weatherlink.com 1.10,2013-03-02 09:45:00,
2013-03-02 04:00:00,39.5,29.0,30.34,North,350,1.0,3.0,67,0.00,,,0.00,weatherlink.com 1.10,2013-03-02 10:00:00,
2013-03-02 04:15:00,39.5,30.0,30.34,North,350,3.0,4.0,68,0.00,,,0.00,weatherlink.com 1.10,2013-03-02 10:15:00,
2013-03-02 04:30:00,40.1,32.0,30.34,North,350,1.0,2.0,73,0.00,,,0.00,weatherlink.com 1.10,2013-03-02 10:30:00,
2013-03-02 04:45:00,40.1,32.0,30.34,North,350,0.0,2.0,74,0.00,,,0.00,weatherlink.com 1.10,2013-03-02 10:45:00,
2013-03-02 05:00:00,39.8,32.0,30.34,North,350,0.0,2.0,73,0.00,,,0.00,weatherlink.com 1.10,2013-03-02 11:00:00,
2013-03-02 05:16:00,39.1,31.0,30.35,North,350,0.0,3.0,74,0.00,,,0.00,weatherlink.com 1.10,2013-03-02 11:16:00,
2013-03-02 05:30:00,38.4,30.0,30.36,North,350,0.0,2.0,72,0.00,,,0.00,weatherlink.com 1.10,2013-03-02 11:30:00,
2013-03-02 05:45:00,37.5,29.0,30.36,North,350,0.0,4.0,72,0.00,,,0.00,weatherlink.com 1.10,2013-03-02 11:45:00,
2013-03-02 06:00:00,37.5,30.0,30.36,North,350,1.0,4.0,73,0.00,,,0.00,weatherlink.com 1.10,2013-03-02 12:00:00,
2013-03-02 06:15:00,37.8,30.0,30.36,North,350,1.0,4.0,73,0.00,,,0.00,weatherlink.com 1.10,2013-03-02 12:15:00,
2013-03-02 06:31:00,37.9,30.0,30.37,North,350,2.0,8.0,73,0.00,,,0.00,weatherlink.com 1.10,2013-03-02 12:31:00,
2013-03-02 06:46:00,37.9,31.0,30.37,North,9,6.0,11.0,75,0.00,,,0.00,weatherlink.com 1.10,2013-03-02 12:46:00,
2013-03-02 07:01:00,38.6,30.0,30.38,North,1,10.0,11.0,71,0.00,,,0.00,weatherlink.com 1.10,2013-03-02 13:01:00,
2013-03-02 07:16:00,38.6,31.0,30.39,North,360,4.0,8.0,73,0.00,,,0.00,weatherlink.com 1.10,2013-03-02 13:16:00,
2013-03-02 07:31:00,38.2,30.0,30.39,NNW,337,5.0,9.0,73,0.00,,,0.00,weatherlink.com 1.10,2013-03-02 13:31:00,
2013-03-02 07:46:00,38.6,31.0,30.40,NNW,327,7.0,10.0,73,0.00,,,0.00,weatherlink.com 1.10,2013-03-02 13:46:00,
2013-03-02 08:01:00,39.2,31.0,30.40,NNW,335,6.0,10.0,71,0.00,,,0.00,weatherlink.com 1.10,2013-03-02 14:01:00,
2013-03-02 08:16:00,39.6,31.0,30.41,NNW,347,8.0,10.0,70,0.00,,,0.00,weatherlink.com 1.10,2013-03-02 14:16:00,
2013-03-02 08:31:00,40.2,31.0,30.41,North,360,11.0,14.0,71,0.00,,,0.00,weatherlink.com 1.10,2013-03-02 14:31:00,
2013-03-02 08:46:00,41.0,31.0,30.42,North,352,11.0,16.0,67,0.00,,,0.00,weatherlink.com 1.10,2013-03-02 14:46:00,
2013-03-02 09:01:00,41.8,31.0,30.43,NNW,341,11.0,14.0,66,0.00,,,0.00,weatherlink.com 1.10,2013-03-02 15:01:00,
2013-03-02 09:15:00,42.7,31.0,30.43,NNW,342,8.0,15.0,63,0.00,,,0.00,weatherlink.com 1.10,2013-03-02 15:15:00,
2013-03-02 09:30:00,43.6,30.0,30.43,NNW,348,8.0,16.0,60,0.00,,,0.00,weatherlink.com 1.10,2013-03-02 15:30:00,
2013-03-02 09:45:00,44.7,31.0,30.43,North,358,7.0,14.0,58,0.00,,,0.00,weatherlink.com 1.10,2013-03-02 15:45:00,
2013-03-02 10:00:00,46.0,30.0,30.43,NW,317,5.0,13.0,55,0.00,,,0.00,weatherlink.com 1.10,2013-03-02 16:00:00,
2013-03-02 10:15:00,47.0,29.0,30.43,NNW,344,7.0,14.0,50,0.00,,,0.00,weatherlink.com 1.10,2013-03-02 16:15:00,
2013-03-02 10:30:00,47.9,28.0,30.42,NNW,337,10.0,16.0,47,0.00,,,0.00,weatherlink.com 1.10,2013-03-02 16:30:00,
2013-03-02 10:45:00,49.1,28.0,30.42,NNW,338,9.0,16.0,45,0.00,,,0.00,weatherlink.com 1.10,2013-03-02 16:45:00,
2013-03-02 11:00:00,49.7,29.0,30.42,NNW,337,7.0,16.0,45,0.00,,,0.00,weatherlink.com 1.10,2013-03-02 17:00:00,
2013-03-02 11:15:00,50.5,29.0,30.41,NW,323,12.0,17.0,43,0.00,,,0.00,weatherlink.com 1.10,2013-03-02 17:15:00,
2013-03-02 11:31:00,51.7,29.0,30.41,NNW,344,8.0,19.0,42,0.00,,,0.00,weatherlink.com 1.10,2013-03-02 17:31:00,
2013-03-02 11:46:00,53.0,27.0,30.40,NNW,327,9.0,18.0,37,0.00,,,0.00,weatherlink.com 1.10,2013-03-02 17:46:00,
2013-03-02 12:01:00,53.4,29.0,30.40,NNW,335,12.0,15.0,39,0.00,,,0.00,weatherlink.com 1.10,2013-03-02 18:01:00,
2013-03-02 12:16:00,53.9,29.0,30.39,North,360,15.0,17.0,38,0.00,,,0.00,weatherlink.com 1.10,2013-03-02 18:16:00,
2013-03-02 12:31:00,54.6,29.0,30.38,North,351,12.0,16.0,37,0.00,,,0.00,weatherlink.com 1.10,2013-03-02 18:31:00,
2013-03-02 12:46:00,55.9,28.0,30.37,NNW,338,8.0,14.0,35,0.00,,,0.00,weatherlink.com 1.10,2013-03-02 18:46:00,
2013-03-02 13:01:00,56.1,28.0,30.36,North,359,10.0,17.0,34,0.00,,,0.00,weatherlink.com 1.10,2013-03-02 19:01:00,
2013-03-02 13:16:00,56.8,29.0,30.35,North,4,8.0,13.0,35,0.00,,,0.00,weatherlink.com 1.10,2013-03-02 19:16:00,
2013-03-02 13:31:00,58.1,29.0,30.34,WNW,302,3.0,16.0,33,0.00,,,0.00,weatherlink.com 1.10,2013-03-02 19:31:00,
2013-03-02 13:46:00,59.3,29.0,30.33,NW,315,7.0,15.0,32,0.00,,,0.00,weatherlink.com 1.10,2013-03-02 19:46:00,
2013-03-02 14:01:00,59.2,31.0,30.32,NNW,345,8.0,14.0,34,0.00,,,0.00,weatherlink.com 1.10,2013-03-02 20:01:00,
2013-03-02 14:16:00,59.9,31.0,30.32,NNW,336,10.0,13.0,33,0.00,,,0.00,weatherlink.com 1.10,2013-03-02 20:16:00,
2013-03-02 14:31:00,60.1,31.0,30.30,NNW,348,10.0,16.0,34,0.00,,,0.00,weatherlink.com 1.10,2013-03-02 20:31:00,
2013-03-02 14:46:00,60.5,30.0,30.30,NNW,331,8.0,18.0,32,0.00,,,0.00,weatherlink.com 1.10,2013-03-02 20:46:00,
2013-03-02 15:01:00,60.3,31.0,30.29,North,354,9.0,14.0,33,0.00,,,0.00,weatherlink.com 1.10,2013-03-02 21:01:00,
2013-03-02 15:16:00,60.9,31.0,30.28,NNW,335,8.0,20.0,33,0.00,,,0.00,weatherlink.com 1.10,2013-03-02 21:16:00,
2013-03-02 15:31:00,61.6,31.0,30.27,NNW,336,9.0,18.0,31,0.00,,,0.00,weatherlink.com 1.10,2013-03-02 21:31:00,
2013-03-02 15:46:00,61.5,32.0,30.27,NNW,345,16.0,19.0,33,0.00,,,0.00,weatherlink.com 1.10,2013-03-02 21:46:00,
2013-03-02 16:02:00,61.8,34.0,30.26,North,358,7.0,17.0,35,0.00,,,0.00,weatherlink.com 1.10,2013-03-02 22:02:00,
2013-03-02 16:16:00,61.6,31.0,30.26,NNW,331,6.0,13.0,31,0.00,,,0.00,weatherlink.com 1.10,2013-03-02 22:16:00,
2013-03-02 16:31:00,62.0,31.0,30.26,North,352,9.0,12.0,31,0.00,,,0.00,weatherlink.com 1.10,2013-03-02 22:31:00,
2013-03-02 16:46:00,62.2,32.0,30.25,NNW,343,6.0,13.0,32,0.00,,,0.00,weatherlink.com 1.10,2013-03-02 22:46:00,
2013-03-02 17:02:00,62.4,31.0,30.25,NW,321,5.0,13.0,31,0.00,,,0.00,weatherlink.com 1.10,2013-03-02 23:02:00,
2013-03-02 17:17:00,61.9,32.0,30.25,NNW,346,10.0,11.0,33,0.00,,,0.00,weatherlink.com 1.10,2013-03-02 23:17:00,
2013-03-02 17:32:00,61.9,32.0,30.25,NW,321,5.0,6.0,33,0.00,,,0.00,weatherlink.com 1.10,2013-03-02 23:32:00,
2013-03-02 17:47:00,61.4,34.0,30.25,NNW,339,5.0,8.0,36,0.00,,,0.00,weatherlink.com 1.10,2013-03-02 23:47:00,
2013-03-02 18:02:00,61.0,34.0,30.24,NNW,339,4.0,6.0,37,0.00,,,0.00,weatherlink.com 1.10,2013-03-03 00:02:00,
2013-03-02 18:17:00,60.4,35.0,30.24,NNW,339,1.0,5.0,39,0.00,,,0.00,weatherlink.com 1.10,2013-03-03 00:17:00,
2013-03-02 18:32:00,59.5,36.0,30.24,NNW,339,0.0,3.0,41,0.00,,,0.00,weatherlink.com 1.10,2013-03-03 00:32:00,
2013-03-02 18:47:00,58.4,39.0,30.24,NNW,339,0.0,1.0,48,0.00,,,0.00,weatherlink.com 1.10,2013-03-03 00:47:00,
2013-03-02 19:02:00,57.4,38.0,30.25,NNW,339,2.0,2.0,48,0.00,,,0.00,weatherlink.com 1.10,2013-03-03 01:02:00,
2013-03-02 19:17:00,56.9,34.0,30.25,NNW,339,2.0,3.0,43,0.00,,,0.00,weatherlink.com 1.10,2013-03-03 01:17:00,
2013-03-02 19:32:00,56.5,33.0,30.25,NNW,339,0.0,3.0,41,0.00,,,0.00,weatherlink.com 1.10,2013-03-03 01:32:00,
2013-03-02 19:47:00,55.7,32.0,30.25,NNW,339,0.0,0.0,41,0.00,,,0.00,weatherlink.com 1.10,2013-03-03 01:47:00,
2013-03-02 20:02:00,54.1,39.0,30.25,NNW,339,0.0,4.0,56,0.00,,,0.00,weatherlink.com 1.10,2013-03-03 02:02:00,
2013-03-02 20:17:00,53.1,39.0,30.25,NNW,339,0.0,0.0,59,0.00,,,0.00,weatherlink.com 1.10,2013-03-03 02:17:00,
2013-03-02 20:32:00,52.1,38.0,30.25,NNW,339,0.0,1.0,60,0.00,,,0.00,weatherlink.com 1.10,2013-03-03 02:32:00,
2013-03-02 20:47:00,51.3,39.0,30.25,NNW,339,0.0,2.0,63,0.00,,,0.00,weatherlink.com 1.10,2013-03-03 02:47:00,
2013-03-02 21:02:00,50.4,39.0,30.24,NNW,339,0.0,1.0,64,0.00,,,0.00,weatherlink.com 1.10,2013-03-03 03:02:00,
2013-03-02 21:17:00,49.2,37.0,30.24,NNW,339,0.0,3.0,63,0.00,,,0.00,weatherlink.com 1.10,2013-03-03 03:17:00,
2013-03-02 21:32:00,48.5,38.0,30.24,NNW,339,1.0,3.0,67,0.00,,,0.00,weatherlink.com 1.10,2013-03-03 03:32:00,
2013-03-02 21:47:00,48.1,38.0,30.25,NNW,339,1.0,3.0,68,0.00,,,0.00,weatherlink.com 1.10,2013-03-03 03:47:00,
2013-03-02 22:02:00,47.5,36.0,30.24,NNW,339,2.0,3.0,64,0.00,,,0.00,weatherlink.com 1.10,2013-03-03 04:02:00,
2013-03-02 22:17:00,47.5,37.0,30.24,NNW,339,1.0,3.0,67,0.00,,,0.00,weatherlink.com 1.10,2013-03-03 04:17:00,
2013-03-02 22:32:00,46.7,37.0,30.24,NNW,339,0.0,2.0,68,0.00,,,0.00,weatherlink.com 1.10,2013-03-03 04:32:00,
2013-03-02 22:47:00,46.2,37.0,30.24,NNW,339,0.0,1.0,69,0.00,,,0.00,weatherlink.com 1.10,2013-03-03 04:47:00,
2013-03-02 23:02:00,45.8,37.0,30.24,NNW,339,0.0,2.0,71,0.00,,,0.00,weatherlink.com 1.10,2013-03-03 05:02:00,
2013-03-02 23:17:00,45.7,37.0,30.24,NNW,339,0.0,0.0,71,0.00,,,0.00,weatherlink.com 1.10,2013-03-03 05:17:00,
2013-03-02 23:32:00,45.7,37.0,30.24,NNW,339,2.0,2.0,72,0.00,,,0.00,weatherlink.com 1.10,2013-03-03 05:32:00,
2013-03-02 23:47:00,45.5,37.0,30.23,NNW,339,0.0,2.0,73,0.00,,,0.00,weatherlink.com 1.10,2013-03-03 05:47:00,